sensor_id;sensor_type;location;lat;lon;timestamp;pressure;altitude;pressure_sealevel;temperature;humidity
30819;BME280;17546;42.674;23.284;2023-03-14T00:01:22;94936.28;;;12.61;31.79
30819;BME280;17546;42.674;23.284;2023-03-14T00:03:49;94932.25;;;12.56;31.92
30819;BME280;17546;42.674;23.284;2023-03-14T00:06:16;94922.38;;;12.50;32.03
30819;BME280;17546;42.674;23.284;2023-03-14T00:08:43;94935.28;;;12.53;32.01
30819;BME280;17546;42.674;23.284;2023-03-14T00:11:15;94933.00;;;12.51;31.94
30819;BME280;17546;42.674;23.284;2023-03-14T00:13:41;94915.34;;;12.37;31.94
30819;BME280;17546;42.674;23.284;2023-03-14T00:16:12;94915.31;;;12.32;32.17
30819;BME280;17546;42.674;23.284;2023-03-14T00:18:38;94907.75;;;12.27;32.31
30819;BME280;17546;42.674;23.284;2023-03-14T00:21:06;94891.56;;;12.08;32.54
30819;BME280;17546;42.674;23.284;2023-03-14T00:23:33;94909.25;;;12.28;32.42
30819;BME280;17546;42.674;23.284;2023-03-14T00:26:08;94900.19;;;12.22;32.54
30819;BME280;17546;42.674;23.284;2023-03-14T00:28:34;94900.19;;;12.33;32.14
30819;BME280;17546;42.674;23.284;2023-03-14T00:31:08;94885.00;;;12.23;32.32
30819;BME280;17546;42.674;23.284;2023-03-14T00:33:34;94888.03;;;12.13;32.73
30819;BME280;17546;42.674;23.284;2023-03-14T00:36:03;94896.13;;;12.11;33.04
30819;BME280;17546;42.674;23.284;2023-03-14T00:38:30;94887.53;;;12.20;32.57
30819;BME280;17546;42.674;23.284;2023-03-14T00:40:56;94886.53;;;12.24;32.71
30819;BME280;17546;42.674;23.284;2023-03-14T00:43:22;94875.69;;;12.20;32.90
30819;BME280;17546;42.674;23.284;2023-03-14T00:45:52;94884.25;;;12.16;32.73
30819;BME280;17546;42.674;23.284;2023-03-14T00:48:19;94889.03;;;12.10;32.63
30819;BME280;17546;42.674;23.284;2023-03-14T00:50:45;94881.97;;;12.09;33.03
30819;BME280;17546;42.674;23.284;2023-03-14T00:53:11;94874.91;;;12.08;33.21
30819;BME280;17546;42.674;23.284;2023-03-14T00:55:38;94881.72;;;12.02;33.11
30819;BME280;17546;42.674;23.284;2023-03-14T00:58:03;94875.41;;;12.07;33.11
30819;BME280;17546;42.674;23.284;2023-03-14T01:00:29;94871.88;;;12.06;33.01
30819;BME280;17546;42.674;23.284;2023-03-14T01:02:54;94867.34;;;12.09;32.75
30819;BME280;17546;42.674;23.284;2023-03-14T01:05:21;94879.97;;;12.04;32.83
30819;BME280;17546;42.674;23.284;2023-03-14T01:07:47;94878.69;;;12.05;32.66
30819;BME280;17546;42.674;23.284;2023-03-14T01:10:12;94865.31;;;11.98;32.84
30819;BME280;17546;42.674;23.284;2023-03-14T01:12:38;94865.03;;;11.90;32.98
30819;BME280;17546;42.674;23.284;2023-03-14T01:15:03;94856.22;;;11.97;32.76
30819;BME280;17546;42.674;23.284;2023-03-14T01:17:29;94853.97;;;12.02;32.62
30819;BME280;17546;42.674;23.284;2023-03-14T01:19:55;94852.94;;;11.99;32.73
30819;BME280;17546;42.674;23.284;2023-03-14T01:22:20;94849.66;;;11.89;32.77
30819;BME280;17546;42.674;23.284;2023-03-14T01:24:46;94853.66;;;11.88;33.02
30819;BME280;17546;42.674;23.284;2023-03-14T01:27:12;94850.63;;;11.86;33.27
30819;BME280;17546;42.674;23.284;2023-03-14T01:29:38;94845.81;;;11.75;33.03
30819;BME280;17546;42.674;23.284;2023-03-14T01:32:04;94840.47;;;11.66;33.18
30819;BME280;17546;42.674;23.284;2023-03-14T01:34:29;94844.53;;;11.76;32.81
30819;BME280;17546;42.674;23.284;2023-03-14T01:36:55;94837.22;;;11.79;32.68
30819;BME280;17546;42.674;23.284;2023-03-14T01:39:20;94835.22;;;11.79;32.87
30819;BME280;17546;42.674;23.284;2023-03-14T01:41:46;94835.22;;;11.74;32.99
30819;BME280;17546;42.674;23.284;2023-03-14T01:44:12;94837.50;;;11.75;32.68
30819;BME280;17546;42.674;23.284;2023-03-14T01:46:42;94836.22;;;11.76;32.66
30819;BME280;17546;42.674;23.284;2023-03-14T01:49:15;94835.47;;;11.87;32.91
30819;BME280;17546;42.674;23.284;2023-03-14T01:52:03;94821.34;;;11.79;32.75
30819;BME280;17546;42.674;23.284;2023-03-14T01:57:05;94830.16;;;11.72;32.39
30819;BME280;17546;42.674;23.284;2023-03-14T01:59:32;94828.66;;;11.71;32.35
30819;BME280;17546;42.674;23.284;2023-03-14T02:01:59;94826.59;;;11.61;32.30
30819;BME280;17546;42.674;23.284;2023-03-14T02:04:28;94819.78;;;11.45;32.63
30819;BME280;17546;42.674;23.284;2023-03-14T02:07:26;94823.09;;;11.60;32.65
30819;BME280;17546;42.674;23.284;2023-03-14T02:09:57;94818.28;;;11.66;32.67
30819;BME280;17546;42.674;23.284;2023-03-14T02:12:24;94811.22;;;11.54;32.85
30819;BME280;17546;42.674;23.284;2023-03-14T02:14:51;94806.16;;;11.52;32.89
30819;BME280;17546;42.674;23.284;2023-03-14T02:17:18;94807.16;;;11.55;33.10
30819;BME280;17546;42.674;23.284;2023-03-14T02:22:31;94808.16;;;11.41;33.29
30819;BME280;17546;42.674;23.284;2023-03-14T02:25:16;94805.13;;;11.38;33.42
30819;BME280;17546;42.674;23.284;2023-03-14T02:27:45;94809.19;;;11.49;33.46
30819;BME280;17546;42.674;23.284;2023-03-14T02:30:25;94812.44;;;11.42;33.20
30819;BME280;17546;42.674;23.284;2023-03-14T02:33:05;94806.38;;;11.37;33.31
30819;BME280;17546;42.674;23.284;2023-03-14T02:35:53;94811.69;;;11.35;33.45
30819;BME280;17546;42.674;23.284;2023-03-14T02:40:58;94817.69;;;11.28;33.64
30819;BME280;17546;42.674;23.284;2023-03-14T02:43:27;94823.75;;;11.27;33.89
30819;BME280;17546;42.674;23.284;2023-03-14T02:45:53;94815.41;;;11.21;33.39
30819;BME280;17546;42.674;23.284;2023-03-14T02:48:30;94814.88;;;11.17;33.53
30819;BME280;17546;42.674;23.284;2023-03-14T02:50:59;94815.63;;;11.12;33.55
30819;BME280;17546;42.674;23.284;2023-03-14T02:53:28;94812.06;;;11.06;33.23
30819;BME280;17546;42.674;23.284;2023-03-14T02:55:55;94822.38;;;11.00;33.83
30819;BME280;17546;42.674;23.284;2023-03-14T02:58:20;94819.66;;;11.11;33.75
30819;BME280;17546;42.674;23.284;2023-03-14T03:00:47;94821.97;;;11.18;33.55
30819;BME280;17546;42.674;23.284;2023-03-14T03:03:13;94821.47;;;11.25;33.99
30819;BME280;17546;42.674;23.284;2023-03-14T03:05:38;94825.75;;;11.21;33.95
30819;BME280;17546;42.674;23.284;2023-03-14T03:08:04;94815.63;;;11.17;33.51
30819;BME280;17546;42.674;23.284;2023-03-14T03:10:30;94813.34;;;11.10;33.57
30819;BME280;17546;42.674;23.284;2023-03-14T03:12:56;94807.56;;;11.14;33.79
30819;BME280;17546;42.674;23.284;2023-03-14T03:15:22;94822.72;;;11.19;33.95
30819;BME280;17546;42.674;23.284;2023-03-14T03:17:47;94814.41;;;11.19;33.77
30819;BME280;17546;42.674;23.284;2023-03-14T03:20:13;94813.38;;;11.16;33.69
30819;BME280;17546;42.674;23.284;2023-03-14T03:22:39;94812.63;;;11.21;33.77
30819;BME280;17546;42.674;23.284;2023-03-14T03:25:09;94809.06;;;11.09;33.71
30819;BME280;17546;42.674;23.284;2023-03-14T03:27:36;94814.88;;;11.17;34.05
30819;BME280;17546;42.674;23.284;2023-03-14T03:30:03;94814.34;;;11.07;34.00
30819;BME280;17546;42.674;23.284;2023-03-14T03:32:30;94813.09;;;11.08;34.27
30819;BME280;17546;42.674;23.284;2023-03-14T03:34:55;94811.84;;;11.09;33.90
30819;BME280;17546;42.674;23.284;2023-03-14T03:37:21;94814.88;;;11.11;34.16
30819;BME280;17546;42.674;23.284;2023-03-14T03:39:46;94812.38;;;11.13;34.01
30819;BME280;17546;42.674;23.284;2023-03-14T03:42:12;94810.97;;;10.86;34.61
30819;BME280;17546;42.674;23.284;2023-03-14T03:44:37;94811.56;;;11.02;34.10
30819;BME280;17546;42.674;23.284;2023-03-14T03:47:03;94815.59;;;11.01;34.12
30819;BME280;17546;42.674;23.284;2023-03-14T03:49:30;94828.13;;;10.90;34.30
30819;BME280;17546;42.674;23.284;2023-03-14T03:51:56;94826.84;;;10.86;34.35
30819;BME280;17546;42.674;23.284;2023-03-14T03:54:21;94823.59;;;10.87;34.20
30819;BME280;17546;42.674;23.284;2023-03-14T03:56:47;94823.38;;;10.48;34.80
30819;BME280;17546;42.674;23.284;2023-03-14T03:59:12;94819.91;;;10.59;34.44
30819;BME280;17546;42.674;23.284;2023-03-14T04:01:38;94825.38;;;10.47;34.80
30819;BME280;17546;42.674;23.284;2023-03-14T04:04:04;94821.81;;;10.41;35.15
30819;BME280;17546;42.674;23.284;2023-03-14T04:06:30;94822.09;;;10.43;35.09
30819;BME280;17546;42.674;23.284;2023-03-14T04:08:55;94825.66;;;10.49;34.82
30819;BME280;17546;42.674;23.284;2023-03-14T04:11:21;94824.31;;;10.39;34.54
30819;BME280;17546;42.674;23.284;2023-03-14T04:13:46;94824.06;;;10.43;34.65
30819;BME280;17546;42.674;23.284;2023-03-14T04:16:17;94820.28;;;10.40;34.77
30819;BME280;17546;42.674;23.284;2023-03-14T04:18:43;94813.00;;;10.43;34.92
30819;BME280;17546;42.674;23.284;2023-03-14T04:21:08;94816.81;;;10.45;34.50
30819;BME280;17546;42.674;23.284;2023-03-14T04:23:34;94798.44;;;10.10;35.13
30819;BME280;17546;42.674;23.284;2023-03-14T04:25:59;94800.34;;;10.30;35.13
30819;BME280;17546;42.674;23.284;2023-03-14T04:28:26;94801.63;;;10.35;34.73
30819;BME280;17546;42.674;23.284;2023-03-14T04:30:51;94793.59;;;10.37;34.68
30819;BME280;17546;42.674;23.284;2023-03-14T04:33:17;94791.34;;;10.41;34.77
30819;BME280;17546;42.674;23.284;2023-03-14T04:35:46;94793.88;;;10.45;34.93
30819;BME280;17546;42.674;23.284;2023-03-14T04:38:14;94788.13;;;10.48;35.22
30819;BME280;17546;42.674;23.284;2023-03-14T04:40:40;94783.00;;;10.30;35.38
30819;BME280;17546;42.674;23.284;2023-03-14T04:43:07;94780.88;;;10.57;34.92
30819;BME280;17546;42.674;23.284;2023-03-14T04:45:35;94778.56;;;10.49;34.88
30819;BME280;17546;42.674;23.284;2023-03-14T04:48:00;94772.78;;;10.47;34.87
30819;BME280;17546;42.674;23.284;2023-03-14T04:50:26;94774.84;;;10.64;34.88
30819;BME280;17546;42.674;23.284;2023-03-14T04:52:51;94767.06;;;10.68;34.51
30819;BME280;17546;42.674;23.284;2023-03-14T04:55:17;94763.81;;;10.69;34.69
30819;BME280;17546;42.674;23.284;2023-03-14T04:57:42;94774.16;;;10.80;35.05
30819;BME280;17546;42.674;23.284;2023-03-14T05:00:09;94760.25;;;10.69;34.95
30819;BME280;17546;42.674;23.284;2023-03-14T05:02:35;94768.56;;;10.69;35.17
30819;BME280;17546;42.674;23.284;2023-03-14T05:05:00;94762.47;;;10.53;35.24
30819;BME280;17546;42.674;23.284;2023-03-14T05:07:25;94758.72;;;10.62;35.08
30819;BME280;17546;42.674;23.284;2023-03-14T05:09:51;94773.34;;;10.63;35.20
30819;BME280;17546;42.674;23.284;2023-03-14T05:12:19;94762.47;;;10.53;35.59
30819;BME280;17546;42.674;23.284;2023-03-14T05:14:47;94766.81;;;10.71;35.57
30819;BME280;17546;42.674;23.284;2023-03-14T05:17:13;94769.38;;;10.75;35.24
30819;BME280;17546;42.674;23.284;2023-03-14T05:19:40;94772.19;;;10.86;35.32
30819;BME280;17546;42.674;23.284;2023-03-14T05:22:06;94768.16;;;10.87;35.09
30819;BME280;17546;42.674;23.284;2023-03-14T05:24:32;94767.91;;;10.91;35.51
30819;BME280;17546;42.674;23.284;2023-03-14T05:26:58;94769.44;;;10.98;35.39
30819;BME280;17546;42.674;23.284;2023-03-14T05:29:24;94766.69;;;10.98;35.02
30819;BME280;17546;42.674;23.284;2023-03-14T05:31:49;94757.88;;;10.99;35.28
30819;BME280;17546;42.674;23.284;2023-03-14T05:34:15;94770.00;;;11.07;35.26
30819;BME280;17546;42.674;23.284;2023-03-14T05:36:40;94754.13;;;11.08;35.17
30819;BME280;17546;42.674;23.284;2023-03-14T05:39:06;94756.66;;;11.17;34.94
30819;BME280;17546;42.674;23.284;2023-03-14T05:41:31;94758.69;;;11.16;36.30
30819;BME280;17546;42.674;23.284;2023-03-14T05:43:57;94765.72;;;11.17;35.26
30819;BME280;17546;42.674;23.284;2023-03-14T05:46:23;94767.75;;;11.17;33.71
30819;BME280;17546;42.674;23.284;2023-03-14T05:48:48;94760.38;;;10.97;33.91
30819;BME280;17546;42.674;23.284;2023-03-14T05:51:13;94762.69;;;11.10;33.32
30819;BME280;17546;42.674;23.284;2023-03-14T05:53:39;94764.94;;;11.06;33.60
30819;BME280;17546;42.674;23.284;2023-03-14T05:56:05;94764.16;;;10.94;33.16
30819;BME280;17546;42.674;23.284;2023-03-14T05:58:30;94765.19;;;10.96;33.27
30819;BME280;17546;42.674;23.284;2023-03-14T06:00:56;94768.44;;;10.89;33.49
30819;BME280;17546;42.674;23.284;2023-03-14T06:03:21;94766.94;;;10.94;33.29
30819;BME280;17546;42.674;23.284;2023-03-14T06:05:50;94764.97;;;11.17;33.47
30819;BME280;17546;42.674;23.284;2023-03-14T06:08:16;94768.28;;;11.27;33.60
30819;BME280;17546;42.674;23.284;2023-03-14T06:10:41;94764.47;;;11.13;33.35
30819;BME280;17546;42.674;23.284;2023-03-14T06:13:07;94765.75;;;11.23;33.52
30819;BME280;17546;42.674;23.284;2023-03-14T06:15:32;94754.69;;;11.29;33.82
30819;BME280;17546;42.674;23.284;2023-03-14T06:17:58;94765.53;;;11.38;33.37
30819;BME280;17546;42.674;23.284;2023-03-14T06:20:23;94760.47;;;11.31;33.59
30819;BME280;17546;42.674;23.284;2023-03-14T06:22:49;94760.50;;;11.36;33.45
30819;BME280;17546;42.674;23.284;2023-03-14T06:25:14;94760.50;;;11.42;33.43
30819;BME280;17546;42.674;23.284;2023-03-14T06:27:40;94768.84;;;11.42;33.26
30819;BME280;17546;42.674;23.284;2023-03-14T06:30:10;94776.56;;;11.15;33.42
30819;BME280;17546;42.674;23.284;2023-03-14T06:32:35;94767.06;;;10.68;34.10
30819;BME280;17546;42.674;23.284;2023-03-14T06:35:01;94762.38;;;10.91;33.93
30819;BME280;17546;42.674;23.284;2023-03-14T06:37:29;94761.69;;;11.07;33.62
30819;BME280;17546;42.674;23.284;2023-03-14T06:39:59;94758.19;;;11.18;33.20
30819;BME280;17546;42.674;23.284;2023-03-14T06:42:24;94767.53;;;11.32;33.08
30819;BME280;17546;42.674;23.284;2023-03-14T06:44:50;94760.75;;;11.38;33.34
30819;BME280;17546;42.674;23.284;2023-03-14T06:47:15;94754.19;;;11.53;33.11
30819;BME280;17546;42.674;23.284;2023-03-14T06:49:41;94748.91;;;11.49;33.00
30819;BME280;17546;42.674;23.284;2023-03-14T06:52:06;94744.63;;;11.76;34.05
30819;BME280;17546;42.674;23.284;2023-03-14T06:54:32;94744.13;;;11.55;32.93
30819;BME280;17546;42.674;23.284;2023-03-14T06:56:57;94737.31;;;11.85;32.69
30819;BME280;17546;42.674;23.284;2023-03-14T06:59:23;94726.00;;;11.94;32.23
30819;BME280;17546;42.674;23.284;2023-03-14T07:01:48;94727.00;;;11.79;32.00
30819;BME280;17546;42.674;23.284;2023-03-14T07:04:16;94728.00;;;11.65;32.44
30819;BME280;17546;42.674;23.284;2023-03-14T07:06:41;94729.97;;;11.25;32.50
30819;BME280;17546;42.674;23.284;2023-03-14T07:09:11;94728.22;;;11.33;32.19
30819;BME280;17546;42.674;23.284;2023-03-14T07:11:37;94718.66;;;11.40;32.65
30819;BME280;17546;42.674;23.284;2023-03-14T07:14:02;94726.50;;;11.75;32.38
30819;BME280;17546;42.674;23.284;2023-03-14T07:16:28;94731.47;;;11.26;32.71
30819;BME280;17546;42.674;23.284;2023-03-14T07:18:57;94726.41;;;11.19;32.99
30819;BME280;17546;42.674;23.284;2023-03-14T07:21:22;94731.78;;;11.68;32.19
30819;BME280;17546;42.674;23.284;2023-03-14T07:23:48;94729.53;;;11.94;32.11
30819;BME280;17546;42.674;23.284;2023-03-14T07:26:13;94731.81;;;12.02;31.91
30819;BME280;17546;42.674;23.284;2023-03-14T07:28:38;94723.44;;;12.18;31.63
30819;BME280;17546;42.674;23.284;2023-03-14T07:31:04;94713.34;;;12.15;31.73
30819;BME280;17546;42.674;23.284;2023-03-14T07:33:30;94707.53;;;12.30;31.89
30819;BME280;17546;42.674;23.284;2023-03-14T07:35:55;94714.84;;;12.16;31.83
30819;BME280;17546;42.674;23.284;2023-03-14T07:38:21;94710.25;;;12.36;31.49
30819;BME280;17546;42.674;23.284;2023-03-14T07:40:46;94709.56;;;11.85;31.78
30819;BME280;17546;42.674;23.284;2023-03-14T07:43:11;94704.00;;;12.24;31.28
30819;BME280;17546;42.674;23.284;2023-03-14T07:45:37;94703.53;;;12.09;31.47
30819;BME280;17546;42.674;23.284;2023-03-14T07:48:02;94701.00;;;11.94;31.68
30819;BME280;17546;42.674;23.284;2023-03-14T07:50:28;94688.31;;;12.27;31.56
30819;BME280;17546;42.674;23.284;2023-03-14T07:52:54;94695.59;;;12.47;31.10
30819;BME280;17546;42.674;23.284;2023-03-14T07:55:19;94703.03;;;11.88;31.55
30819;BME280;17546;42.674;23.284;2023-03-14T07:57:44;94701.50;;;11.92;31.15
30819;BME280;17546;42.674;23.284;2023-03-14T08:00:11;94701.00;;;11.83;31.60
30819;BME280;17546;42.674;23.284;2023-03-14T08:02:36;94695.66;;;12.18;31.15
30819;BME280;17546;42.674;23.284;2023-03-14T08:05:03;94682.78;;;12.27;31.11
30819;BME280;17546;42.674;23.284;2023-03-14T08:07:29;94685.66;;;12.63;30.99
30819;BME280;17546;42.674;23.284;2023-03-14T08:09:54;94694.44;;;12.84;30.88
30819;BME280;17546;42.674;23.284;2023-03-14T08:12:19;94695.38;;;12.97;30.70
30819;BME280;17546;42.674;23.284;2023-03-14T08:14:45;94678.13;;;13.05;30.36
30819;BME280;17546;42.674;23.284;2023-03-14T08:17:10;94684.16;;;13.14;30.07
30819;BME280;17546;42.674;23.284;2023-03-14T08:19:36;94683.81;;;12.18;31.62
30819;BME280;17546;42.674;23.284;2023-03-14T08:22:01;94683.50;;;12.97;30.94
30819;BME280;17546;42.674;23.284;2023-03-14T08:24:27;94679.91;;;13.02;30.99
30819;BME280;17546;42.674;23.284;2023-03-14T08:26:53;94681.03;;;12.82;31.27
30819;BME280;17546;42.674;23.284;2023-03-14T08:29:18;94681.25;;;12.26;31.77
30819;BME280;17546;42.674;23.284;2023-03-14T08:31:43;94680.03;;;12.79;31.32
30819;BME280;17546;42.674;23.284;2023-03-14T08:34:09;94682.69;;;13.08;30.89
30819;BME280;17546;42.674;23.284;2023-03-14T08:36:35;94683.16;;;13.12;30.34
30819;BME280;17546;42.674;23.284;2023-03-14T08:39:00;94678.06;;;13.16;30.56
30819;BME280;17546;42.674;23.284;2023-03-14T08:41:26;94665.91;;;12.08;31.77
30819;BME280;17546;42.674;23.284;2023-03-14T08:43:51;94664.13;;;12.16;31.63
30819;BME280;17546;42.674;23.284;2023-03-14T08:46:17;94667.00;;;13.05;30.75
30819;BME280;17546;42.674;23.284;2023-03-14T08:48:42;94658.72;;;13.40;30.19
30819;BME280;17546;42.674;23.284;2023-03-14T08:51:09;94651.06;;;13.77;31.10
30819;BME280;17546;42.674;23.284;2023-03-14T08:53:36;94648.25;;;14.07;29.99
30819;BME280;17546;42.674;23.284;2023-03-14T08:56:02;94646.50;;;14.04;29.26
30819;BME280;17546;42.674;23.284;2023-03-14T08:58:29;94637.59;;;14.11;29.24
30819;BME280;17546;42.674;23.284;2023-03-14T09:00:54;94637.94;;;14.89;28.44
30819;BME280;17546;42.674;23.284;2023-03-14T09:03:20;94625.22;;;14.50;27.17
30819;BME280;17546;42.674;23.284;2023-03-14T09:05:48;94626.84;;;15.21;27.48
30819;BME280;17546;42.674;23.284;2023-03-14T09:08:14;94613.41;;;15.98;27.03
30819;BME280;17546;42.674;23.284;2023-03-14T09:10:44;94614.50;;;16.35;25.51
30819;BME280;17546;42.674;23.284;2023-03-14T09:13:13;94612.75;;;16.71;25.64
30819;BME280;17546;42.674;23.284;2023-03-14T09:15:38;94603.25;;;16.74;25.36
30819;BME280;17546;42.674;23.284;2023-03-14T09:18:04;94598.66;;;16.64;24.90
30819;BME280;17546;42.674;23.284;2023-03-14T09:20:29;94598.00;;;17.19;24.60
30819;BME280;17546;42.674;23.284;2023-03-14T09:22:55;94600.56;;;17.51;23.92
30819;BME280;17546;42.674;23.284;2023-03-14T09:25:20;94599.84;;;17.37;24.08
30819;BME280;17546;42.674;23.284;2023-03-14T09:27:46;94581.13;;;17.74;23.83
30819;BME280;17546;42.674;23.284;2023-03-14T09:30:11;94574.91;;;17.05;23.42
30819;BME280;17546;42.674;23.284;2023-03-14T09:32:37;94568.63;;;17.54;23.16
30819;BME280;17546;42.674;23.284;2023-03-14T09:35:03;94576.28;;;17.53;23.04
30819;BME280;17546;42.674;23.284;2023-03-14T09:37:28;94565.63;;;17.73;22.91
30819;BME280;17546;42.674;23.284;2023-03-14T09:39:54;94552.63;;;18.12;22.97
30819;BME280;17546;42.674;23.284;2023-03-14T09:42:23;94559.97;;;17.86;23.14
30819;BME280;17546;42.674;23.284;2023-03-14T09:44:57;94548.09;;;18.01;23.31
30819;BME280;17546;42.674;23.284;2023-03-14T09:47:25;94552.19;;;18.29;23.30
30819;BME280;17546;42.674;23.284;2023-03-14T09:49:51;94533.94;;;18.95;23.43
30819;BME280;17546;42.674;23.284;2023-03-14T09:52:31;94535.25;;;18.94;22.92
30819;BME280;17546;42.674;23.284;2023-03-14T09:55:01;94525.97;;;19.60;22.31
30819;BME280;17546;42.674;23.284;2023-03-14T09:57:32;94529.34;;;19.51;22.20
30819;BME280;17546;42.674;23.284;2023-03-14T10:00:14;94529.88;;;19.19;21.82
30819;BME280;17546;42.674;23.284;2023-03-14T10:02:51;94521.25;;;19.09;21.85
30819;BME280;17546;42.674;23.284;2023-03-14T10:05:21;94518.13;;;19.74;21.65
30819;BME280;17546;42.674;23.284;2023-03-14T10:07:47;94505.88;;;20.02;21.24
30819;BME280;17546;42.674;23.284;2023-03-14T10:10:19;94514.91;;;19.39;21.70
30819;BME280;17546;42.674;23.284;2023-03-14T10:12:47;94508.16;;;19.35;21.46
30819;BME280;17546;42.674;23.284;2023-03-14T10:15:14;94501.38;;;20.07;21.45
30819;BME280;17546;42.674;23.284;2023-03-14T10:17:48;94500.88;;;20.41;20.92
30819;BME280;17546;42.674;23.284;2023-03-14T10:20:35;94486.25;;;20.51;20.87
30819;BME280;17546;42.674;23.284;2023-03-14T10:25:42;94475.84;;;20.20;20.59
30819;BME280;17546;42.674;23.284;2023-03-14T10:28:39;94472.03;;;20.81;19.82
30819;BME280;17546;42.674;23.284;2023-03-14T10:31:07;94461.28;;;20.55;20.18
30819;BME280;17546;42.674;23.284;2023-03-14T10:33:35;94454.06;;;21.02;19.84
30819;BME280;17546;42.674;23.284;2023-03-14T10:36:05;94444.56;;;20.90;19.93
30819;BME280;17546;42.674;23.284;2023-03-14T10:38:39;94437.69;;;21.33;20.65
30819;BME280;17546;42.674;23.284;2023-03-14T10:41:26;94430.16;;;21.11;21.05
30819;BME280;17546;42.674;23.284;2023-03-14T10:43:57;94412.91;;;20.49;21.42
30819;BME280;17546;42.674;23.284;2023-03-14T10:46:24;94419.34;;;20.74;21.50
30819;BME280;17546;42.674;23.284;2023-03-14T10:48:51;94404.59;;;20.26;21.32
30819;BME280;17546;42.674;23.284;2023-03-14T10:51:27;94410.19;;;19.85;21.63
30819;BME280;17546;42.674;23.284;2023-03-14T10:54:12;94395.81;;;20.54;20.98
30819;BME280;17546;42.674;23.284;2023-03-14T10:56:38;94399.06;;;21.01;21.32
30819;BME280;17546;42.674;23.284;2023-03-14T10:59:11;94382.47;;;20.88;21.14
30819;BME280;17546;42.674;23.284;2023-03-14T11:07:42;94371.66;;;21.26;21.16
30819;BME280;17546;42.674;23.284;2023-03-14T11:19:19;94332.22;;;21.26;21.67
30819;BME280;17546;42.674;23.284;2023-03-14T11:21:56;94326.53;;;20.34;22.17
30819;BME280;17546;42.674;23.284;2023-03-14T11:26:56;94316.09;;;20.27;22.58
30819;BME280;17546;42.674;23.284;2023-03-14T11:32:07;94306.28;;;20.68;22.00
30819;BME280;17546;42.674;23.284;2023-03-14T11:34:50;94296.34;;;20.67;21.94
30819;BME280;17546;42.674;23.284;2023-03-14T11:40:17;94289.59;;;21.05;22.40
30819;BME280;17546;42.674;23.284;2023-03-14T11:42:44;94288.78;;;21.30;22.30
30819;BME280;17546;42.674;23.284;2023-03-14T11:45:18;94293.63;;;21.37;22.01
30819;BME280;17546;42.674;23.284;2023-03-14T11:47:51;94271.16;;;21.64;22.41
30819;BME280;17546;42.674;23.284;2023-03-14T11:50:23;94268.56;;;21.76;21.54
30819;BME280;17546;42.674;23.284;2023-03-14T11:52:56;94267.41;;;21.09;22.02
30819;BME280;17546;42.674;23.284;2023-03-14T11:55:43;94265.25;;;20.82;22.21
30819;BME280;17546;42.674;23.284;2023-03-14T11:58:20;94253.06;;;20.30;22.15
30819;BME280;17546;42.674;23.284;2023-03-14T12:00:49;94253.13;;;20.72;22.16
30819;BME280;17546;42.674;23.284;2023-03-14T12:11:49;94219.66;;;21.19;21.80
30819;BME280;17546;42.674;23.284;2023-03-14T12:14:35;94223.84;;;20.75;21.83
30819;BME280;17546;42.674;23.284;2023-03-14T12:17:19;94216.41;;;20.88;21.81
30819;BME280;17546;42.674;23.284;2023-03-14T12:19:45;94212.41;;;20.73;21.80
30819;BME280;17546;42.674;23.284;2023-03-14T12:22:33;94202.97;;;20.61;22.10
30819;BME280;17546;42.674;23.284;2023-03-14T12:30:32;94186.50;;;20.92;21.91
30819;BME280;17546;42.674;23.284;2023-03-14T12:35:47;94168.97;;;20.84;22.18
30819;BME280;17546;42.674;23.284;2023-03-14T12:43:46;94168.81;;;21.61;20.93
30819;BME280;17546;42.674;23.284;2023-03-14T12:51:20;94153.78;;;21.76;20.70
30819;BME280;17546;42.674;23.284;2023-03-14T12:57:04;94140.41;;;21.77;20.39
30819;BME280;17546;42.674;23.284;2023-03-14T12:59:38;94143.16;;;21.94;20.70
30819;BME280;17546;42.674;23.284;2023-03-14T13:04:46;94126.72;;;21.63;20.96
30819;BME280;17546;42.674;23.284;2023-03-14T13:09:53;94123.19;;;22.19;20.24
30819;BME280;17546;42.674;23.284;2023-03-14T13:12:25;94125.28;;;22.19;20.23
30819;BME280;17546;42.674;23.284;2023-03-14T13:14:53;94113.53;;;22.13;19.79
30819;BME280;17546;42.674;23.284;2023-03-14T13:17:31;94112.66;;;22.10;20.53
30819;BME280;17546;42.674;23.284;2023-03-14T13:20:03;94102.03;;;21.54;20.58
30819;BME280;17546;42.674;23.284;2023-03-14T13:22:36;94087.50;;;21.85;20.18
30819;BME280;17546;42.674;23.284;2023-03-14T13:25:09;94085.69;;;21.80;20.15
30819;BME280;17546;42.674;23.284;2023-03-14T13:27:35;94073.53;;;22.43;19.86
30819;BME280;17546;42.674;23.284;2023-03-14T13:30:20;94086.28;;;22.25;20.01
30819;BME280;17546;42.674;23.284;2023-03-14T13:32:47;94079.19;;;22.53;20.36
30819;BME280;17546;42.674;23.284;2023-03-14T13:35:21;94074.72;;;22.31;20.17
30819;BME280;17546;42.674;23.284;2023-03-14T13:37:52;94065.66;;;22.42;20.27
30819;BME280;17546;42.674;23.284;2023-03-14T13:40:37;94057.19;;;22.32;19.61
30819;BME280;17546;42.674;23.284;2023-03-14T13:43:17;94057.78;;;22.31;19.82
30819;BME280;17546;42.674;23.284;2023-03-14T13:46:42;94035.25;;;22.40;19.73
30819;BME280;17546;42.674;23.284;2023-03-14T13:48:57;94043.13;;;22.52;19.35
30819;BME280;17546;42.674;23.284;2023-03-14T13:51:23;94035.22;;;22.60;19.08
30819;BME280;17546;42.674;23.284;2023-03-14T13:53:55;94023.03;;;22.28;19.50
30819;BME280;17546;42.674;23.284;2023-03-14T13:56:22;94023.41;;;21.85;19.57
30819;BME280;17546;42.674;23.284;2023-03-14T13:58:49;94017.66;;;22.13;19.53
30819;BME280;17546;42.674;23.284;2023-03-14T14:01:27;94008.06;;;22.25;19.66
30819;BME280;17546;42.674;23.284;2023-03-14T14:04:13;94002.09;;;22.12;19.71
30819;BME280;17546;42.674;23.284;2023-03-14T14:06:46;93995.09;;;22.13;19.37